createdAt,value
2019-05-19T00:00:02.003Z,28.07
2019-05-19T00:02:40.861Z,25.32
2019-05-19T00:05:17.257Z,25.80
2019-05-19T00:07:54.538Z,25.97
2019-05-19T00:10:31.245Z,25.43
2019-05-19T00:13:07.218Z,25.30
2019-05-19T00:15:43.884Z,24.80
2019-05-19T00:18:20.250Z,23.65
2019-05-19T00:20:56.910Z,25.23
2019-05-19T00:23:33.520Z,24.05
2019-05-19T00:26:10.367Z,24.23
2019-05-19T00:28:46.735Z,24.15
2019-05-19T00:31:23.073Z,23.70
2019-05-19T00:33:59.607Z,23.90
2019-05-19T00:36:36.420Z,24.87
2019-05-19T00:39:12.607Z,21.57
2019-05-19T00:41:48.797Z,22.05
2019-05-19T00:44:25.523Z,21.85
2019-05-19T00:47:02.410Z,22.58
2019-05-19T00:49:41.678Z,21.77
2019-05-19T00:52:17.412Z,21.90
2019-05-19T00:54:53.786Z,22.90
2019-05-19T00:57:31.412Z,22.48
2019-05-19T01:00:08.372Z,21.57
2019-05-19T01:02:44.968Z,21.75
2019-05-19T01:05:21.542Z,21.10
2019-05-19T01:07:58.264Z,20.05
2019-05-19T01:10:34.979Z,20.20
2019-05-19T01:13:11.624Z,21.07
2019-05-19T01:15:48.949Z,20.12
2019-05-19T01:18:25.771Z,20.05
2019-05-19T01:21:02.812Z,19.07
2019-05-19T01:23:39.148Z,19.12
2019-05-19T01:26:15.459Z,18.70
2019-05-19T01:28:52.031Z,18.65
2019-05-19T01:31:28.158Z,21.60
2019-05-19T01:34:04.565Z,19.50
2019-05-19T01:36:40.927Z,18.98
2019-05-19T01:39:17.795Z,19.15
2019-05-19T01:41:54.576Z,20.45
2019-05-19T01:44:30.945Z,19.37
2019-05-19T01:47:08.113Z,18.57
2019-05-19T01:49:44.784Z,19.30
2019-05-19T01:52:21.411Z,18.77
2019-05-19T01:54:58.330Z,19.17
2019-05-19T01:57:34.867Z,19.07
2019-05-19T02:00:12.140Z,19.92
2019-05-19T02:02:48.805Z,19.27
2019-05-19T02:05:25.784Z,19.02
2019-05-19T02:08:02.300Z,17.82
2019-05-19T02:10:40.360Z,18.73
2019-05-19T02:13:18.151Z,18.42
2019-05-19T02:15:54.971Z,18.45
2019-05-19T02:18:31.639Z,17.75
2019-05-19T02:21:08.083Z,18.62
2019-05-19T02:23:44.802Z,17.95
2019-05-19T02:26:21.552Z,17.85
2019-05-19T02:28:58.250Z,16.95
2019-05-19T02:31:35.019Z,18.40
2019-05-19T02:34:11.955Z,17.17
2019-05-19T02:36:47.784Z,16.32
2019-05-19T02:39:24.778Z,15.93
2019-05-19T02:42:03.386Z,19.80
2019-05-19T02:44:42.712Z,18.07
2019-05-19T02:47:21.053Z,18.35
2019-05-19T02:49:58.119Z,17.95
2019-05-19T02:52:36.105Z,16.32
2019-05-19T02:55:12.962Z,16.05
2019-05-19T02:57:50.746Z,16.07
2019-05-19T03:00:47.578Z,16.80
2019-05-19T03:03:24.410Z,16.87
2019-05-19T03:06:01.236Z,17.07
2019-05-19T03:08:37.812Z,18.17
2019-05-19T03:11:14.146Z,17.48
2019-05-19T03:13:50.584Z,17.57
2019-05-19T03:16:26.987Z,16.87
2019-05-19T03:19:03.549Z,17.30
2019-05-19T03:21:40.765Z,16.55
2019-05-19T03:24:17.959Z,16.55
2019-05-19T03:26:54.111Z,16.77
2019-05-19T03:29:38.168Z,17.23
2019-05-19T03:32:28.285Z,17.85
2019-05-19T03:35:05.114Z,18.95
2019-05-19T03:37:41.629Z,19.07
2019-05-19T03:40:24.848Z,17.75
2019-05-19T03:43:01.408Z,16.15
2019-05-19T03:45:39.554Z,16.15
2019-05-19T03:48:15.773Z,17.07
2019-05-19T03:50:52.427Z,16.07
2019-05-19T03:53:29.295Z,16.93
2019-05-19T03:56:06.072Z,16.48
2019-05-19T03:58:42.804Z,16.45
2019-05-19T04:01:19.290Z,16.02
2019-05-19T04:03:55.889Z,16.90
2019-05-19T04:06:32.861Z,15.95
2019-05-19T04:09:10.768Z,16.55
2019-05-19T04:11:47.324Z,15.95
2019-05-19T04:14:25.114Z,15.75
2019-05-19T04:17:01.615Z,15.43
2019-05-19T04:19:37.646Z,14.58
2019-05-19T04:22:15.240Z,15.18
2019-05-19T04:24:53.176Z,14.33
2019-05-19T04:27:29.692Z,14.10
2019-05-19T04:30:06.809Z,15.03
2019-05-19T04:32:43.298Z,15.63
2019-05-19T04:35:20.364Z,14.93
2019-05-19T04:37:56.852Z,14.95
2019-05-19T04:40:33.318Z,17.73
2019-05-19T04:43:10.144Z,15.23
2019-05-19T04:45:46.621Z,15.70
2019-05-19T04:48:24.023Z,14.78
2019-05-19T04:51:00.588Z,15.30
2019-05-19T04:53:37.126Z,15.88
2019-05-19T04:56:13.642Z,14.35
2019-05-19T04:58:50.335Z,14.47
2019-05-19T05:01:26.729Z,15.75
2019-05-19T05:04:03.582Z,14.68
2019-05-19T05:06:40.158Z,14.13
2019-05-19T05:09:17.319Z,13.70
2019-05-19T05:11:53.822Z,14.53
2019-05-19T05:14:31.124Z,14.25
2019-05-19T05:17:07.390Z,14.43
2019-05-19T05:19:44.080Z,13.62
2019-05-19T05:22:22.463Z,13.78
2019-05-19T05:25:17.551Z,14.38
2019-05-19T05:27:54.373Z,14.07
2019-05-19T05:30:30.517Z,14.43
2019-05-19T05:33:07.432Z,14.75
2019-05-19T05:35:44.087Z,14.20
2019-05-19T05:38:20.584Z,15.10
2019-05-19T05:40:57.169Z,13.90
2019-05-19T05:43:34.083Z,13.68
2019-05-19T05:46:10.191Z,12.78
2019-05-19T05:48:46.267Z,12.78
2019-05-19T05:51:22.845Z,12.40
2019-05-19T05:53:59.379Z,13.22
2019-05-19T05:56:35.783Z,13.18
2019-05-19T05:59:12.785Z,14.03
2019-05-19T06:01:50.215Z,13.88
2019-05-19T06:04:27.117Z,14.15
2019-05-19T06:07:03.353Z,12.90
2019-05-19T06:09:39.964Z,12.47
2019-05-19T06:12:16.446Z,12.70
2019-05-19T06:14:52.976Z,12.35
2019-05-19T06:17:29.702Z,11.80
2019-05-19T06:20:07.108Z,14.05
2019-05-19T06:22:55.993Z,13.88
2019-05-19T06:25:22.011Z,14.40
2019-05-19T06:27:58.344Z,14.45
2019-05-19T06:30:34.801Z,14.03
2019-05-19T06:33:11.163Z,13.50
2019-05-19T06:35:47.814Z,13.32
2019-05-19T06:38:24.847Z,13.88
2019-05-19T06:41:01.392Z,13.78
2019-05-19T06:43:37.908Z,14.15
2019-05-19T06:46:14.025Z,13.35
2019-05-19T06:48:50.619Z,13.62
2019-05-19T06:51:27.749Z,14.20
2019-05-19T06:54:04.249Z,13.35
2019-05-19T06:56:40.923Z,12.00
2019-05-19T06:59:17.667Z,11.85
2019-05-19T07:01:55.831Z,13.65
2019-05-19T07:04:32.292Z,13.08
2019-05-19T07:07:11.526Z,13.98
2019-05-19T07:09:58.002Z,13.62
2019-05-19T07:12:26.467Z,12.03
2019-05-19T07:15:03.313Z,13.10
2019-05-19T07:17:40.985Z,13.13
2019-05-19T07:20:18.126Z,13.18
2019-05-19T07:22:54.421Z,14.25
2019-05-19T07:25:34.176Z,14.40
2019-05-19T07:28:10.798Z,14.53
2019-05-19T07:30:47.939Z,14.43
2019-05-19T07:33:25.478Z,13.62
2019-05-19T07:36:02.243Z,15.53
2019-05-19T07:38:38.620Z,16.37
2019-05-19T07:41:15.256Z,15.83
2019-05-19T07:43:52.606Z,15.88
2019-05-19T07:46:29.317Z,16.27
2019-05-19T07:49:05.226Z,15.68
2019-05-19T07:51:42.017Z,16.52
2019-05-19T07:54:18.622Z,16.52
2019-05-19T07:56:55.168Z,16.70
2019-05-19T07:59:31.976Z,17.92
2019-05-19T08:02:08.518Z,16.80
2019-05-19T08:04:46.801Z,18.32
2019-05-19T08:07:23.433Z,16.82
2019-05-19T08:10:00.228Z,17.55
2019-05-19T08:12:36.627Z,16.75
2019-05-19T08:15:13.619Z,16.62
2019-05-19T08:17:50.607Z,17.67
2019-05-19T08:20:27.183Z,18.30
2019-05-19T08:23:04.016Z,20.48
2019-05-19T08:25:40.797Z,19.82
2019-05-19T08:28:18.145Z,31.82
2019-05-19T08:30:54.907Z,35.48
2019-05-19T08:33:31.762Z,27.58
2019-05-19T08:36:08.043Z,19.15
2019-05-19T08:38:44.895Z,19.07
2019-05-19T08:41:21.554Z,18.75
2019-05-19T08:43:59.396Z,17.62
2019-05-19T08:46:36.068Z,15.93
2019-05-19T08:49:12.399Z,16.30
2019-05-19T08:51:48.798Z,16.23
2019-05-19T08:54:25.161Z,17.17
2019-05-19T08:57:01.922Z,16.57
2019-05-19T08:59:38.330Z,17.75
2019-05-19T09:02:14.744Z,22.25
2019-05-19T09:04:51.532Z,19.52
2019-05-19T09:07:27.918Z,18.77
2019-05-19T09:10:04.561Z,21.93
2019-05-19T09:12:40.908Z,27.02
2019-05-19T09:15:17.855Z,26.75
2019-05-19T09:17:54.420Z,23.12
2019-05-19T09:20:32.160Z,28.65
2019-05-19T09:23:08.828Z,23.83
2019-05-19T09:25:45.137Z,19.10
2019-05-19T09:28:21.907Z,17.42
2019-05-19T09:30:58.406Z,17.55
2019-05-19T09:33:34.852Z,19.02
2019-05-19T09:36:11.247Z,18.70
2019-05-19T09:38:48.128Z,20.27
2019-05-19T09:41:24.721Z,19.73
2019-05-19T09:44:01.190Z,18.45
2019-05-19T09:46:40.723Z,17.70
2019-05-19T09:49:36.053Z,18.45
2019-05-19T09:52:16.823Z,20.88
2019-05-19T09:54:50.138Z,19.07
2019-05-19T09:57:26.482Z,19.35
2019-05-19T10:00:02.700Z,20.35
2019-05-19T10:02:41.121Z,18.77
2019-05-19T10:05:17.864Z,16.20
2019-05-19T10:07:54.927Z,15.80
2019-05-19T10:11:19.900Z,16.67
2019-05-19T10:13:56.431Z,17.50
2019-05-19T10:16:32.581Z,17.92
2019-05-19T10:19:09.199Z,18.12
2019-05-19T10:21:45.733Z,18.98
2019-05-19T10:24:22.391Z,18.27
2019-05-19T10:26:58.987Z,19.23
2019-05-19T10:29:36.318Z,18.32
2019-05-19T10:32:12.606Z,18.55
2019-05-19T10:34:49.135Z,19.00
2019-05-19T10:37:25.585Z,18.30
2019-05-19T10:40:03.391Z,16.32
2019-05-19T10:42:39.882Z,16.67
2019-05-19T10:45:16.151Z,16.42
2019-05-19T10:47:52.639Z,16.62
2019-05-19T10:50:29.209Z,17.50
2019-05-19T10:53:05.501Z,18.87
2019-05-19T10:55:41.643Z,19.10
2019-05-19T10:58:18.774Z,18.10
2019-05-19T11:00:55.321Z,16.52
2019-05-19T11:03:32.015Z,18.75
2019-05-19T11:06:08.737Z,18.48
2019-05-19T11:08:45.491Z,18.07
2019-05-19T11:11:21.857Z,18.73
2019-05-19T11:13:58.640Z,18.48
2019-05-19T11:16:35.077Z,16.40
2019-05-19T11:19:11.955Z,16.12
2019-05-19T11:21:49.080Z,17.20
2019-05-19T11:24:25.872Z,18.10
2019-05-19T11:27:02.619Z,16.60
2019-05-19T11:29:39.422Z,17.27
2019-05-19T11:32:16.110Z,17.60
2019-05-19T11:34:55.387Z,18.02
2019-05-19T11:37:31.678Z,18.50
2019-05-19T11:40:08.434Z,21.05
2019-05-19T11:42:46.848Z,20.40
2019-05-19T11:45:23.771Z,20.35
2019-05-19T11:48:00.618Z,21.70
2019-05-19T11:50:41.374Z,20.82
2019-05-19T11:53:15.458Z,21.50
2019-05-19T11:56:04.344Z,21.37
2019-05-19T11:58:29.937Z,19.12
2019-05-19T12:01:06.540Z,20.92
2019-05-19T12:03:43.481Z,20.72
2019-05-19T12:06:21.253Z,20.50
2019-05-19T12:08:57.924Z,20.08
2019-05-19T12:11:34.139Z,20.27
2019-05-19T12:14:10.696Z,20.82
2019-05-19T12:16:47.495Z,21.42
2019-05-19T12:19:24.621Z,22.05
2019-05-19T12:22:01.179Z,22.02
2019-05-19T12:24:38.820Z,22.25
2019-05-19T12:27:15.490Z,22.05
2019-05-19T12:29:52.356Z,22.00
2019-05-19T12:32:29.054Z,21.73
2019-05-19T12:35:05.551Z,21.27
2019-05-19T12:37:42.323Z,21.65
2019-05-19T12:40:22.320Z,22.65
2019-05-19T12:42:56.881Z,22.93
2019-05-19T12:45:33.417Z,23.10
2019-05-19T12:48:09.429Z,23.30
2019-05-19T12:50:46.178Z,23.67
2019-05-19T12:53:26.805Z,22.77
2019-05-19T12:56:03.008Z,22.85
2019-05-19T12:58:40.049Z,23.00
2019-05-19T13:01:16.559Z,24.67
2019-05-19T13:03:53.455Z,22.80
2019-05-19T13:06:30.206Z,23.07
2019-05-19T13:09:07.608Z,22.65
2019-05-19T13:11:48.138Z,24.23
2019-05-19T13:14:23.789Z,24.12
2019-05-19T13:17:00.242Z,24.10
2019-05-19T13:19:36.633Z,23.87
2019-05-19T13:22:13.373Z,24.47
2019-05-19T13:24:50.054Z,23.75
2019-05-19T13:27:26.900Z,23.00
2019-05-19T13:30:03.244Z,23.95
2019-05-19T13:32:40.639Z,24.30
2019-05-19T13:35:16.952Z,23.05
2019-05-19T13:37:53.671Z,23.30
2019-05-19T13:40:30.236Z,23.75
2019-05-19T13:43:06.871Z,24.43
2019-05-19T13:45:43.357Z,24.80
2019-05-19T13:48:20.238Z,24.12
2019-05-19T13:50:56.636Z,24.75
2019-05-19T13:53:33.317Z,25.70
2019-05-19T13:56:09.266Z,24.87
2019-05-19T13:58:45.955Z,26.35
2019-05-19T14:01:28.674Z,23.05
2019-05-19T14:04:00.749Z,25.17
2019-05-19T14:06:37.672Z,25.72
2019-05-19T14:09:15.327Z,25.15
2019-05-19T14:11:51.807Z,26.40
2019-05-19T14:14:28.218Z,24.70
2019-05-19T14:17:04.699Z,24.60
2019-05-19T14:19:41.448Z,25.40
2019-05-19T14:22:18.219Z,24.05
2019-05-19T14:24:54.611Z,24.30
2019-05-19T14:27:31.187Z,24.12
2019-05-19T14:30:07.981Z,24.98
2019-05-19T14:32:44.607Z,24.00
2019-05-19T14:35:21.636Z,24.67
2019-05-19T14:37:58.015Z,23.55
2019-05-19T14:40:35.085Z,23.38
2019-05-19T14:43:11.307Z,22.60
2019-05-19T14:45:47.753Z,24.82
2019-05-19T14:48:24.391Z,22.05
2019-05-19T14:51:01.306Z,21.65
2019-05-19T14:53:37.793Z,21.65
2019-05-19T14:56:13.879Z,22.00
2019-05-19T14:58:50.552Z,21.20
2019-05-19T15:01:26.998Z,21.90
2019-05-19T15:04:04.026Z,22.32
2019-05-19T15:06:40.932Z,21.55
2019-05-19T15:09:17.784Z,22.30
2019-05-19T15:12:13.215Z,21.95
2019-05-19T15:14:49.490Z,22.00
2019-05-19T15:17:26.204Z,21.57
2019-05-19T15:20:02.681Z,22.40
2019-05-19T15:22:39.122Z,22.27
2019-05-19T15:25:17.209Z,22.25
2019-05-19T15:28:00.127Z,22.10
2019-05-19T15:30:31.614Z,23.05
2019-05-19T15:33:08.247Z,21.48
2019-05-19T15:35:45.139Z,21.82
2019-05-19T15:38:21.751Z,21.82
2019-05-19T15:40:59.456Z,21.82
2019-05-19T15:43:36.263Z,22.40
2019-05-19T15:46:13.676Z,21.85
2019-05-19T15:48:50.140Z,22.67
2019-05-19T15:51:29.991Z,22.55
2019-05-19T15:54:05.919Z,22.87
2019-05-19T15:56:42.981Z,21.57
2019-05-19T15:59:19.753Z,22.40
2019-05-19T16:01:56.455Z,22.30
2019-05-19T16:04:33.356Z,22.50
2019-05-19T16:07:11.039Z,23.15
2019-05-19T16:09:47.835Z,22.62
2019-05-19T16:12:24.177Z,23.95
2019-05-19T16:15:00.730Z,24.60
2019-05-19T16:17:37.765Z,24.45
2019-05-19T16:20:14.273Z,24.55
2019-05-19T16:22:51.199Z,24.87
2019-05-19T16:25:27.679Z,24.32
2019-05-19T16:28:04.035Z,23.90
2019-05-19T16:30:40.986Z,23.47
2019-05-19T16:33:17.771Z,23.30
2019-05-19T16:35:54.117Z,22.27
2019-05-19T16:38:31.707Z,23.35
2019-05-19T16:41:08.249Z,23.40
2019-05-19T16:43:44.799Z,23.20
2019-05-19T16:46:21.817Z,22.10
2019-05-19T16:48:58.481Z,21.87
2019-05-19T16:51:34.860Z,22.02
2019-05-19T16:54:15.871Z,22.87
2019-05-19T16:56:52.357Z,21.42
2019-05-19T16:59:28.829Z,22.00
2019-05-19T17:02:05.262Z,22.40
2019-05-19T17:04:41.451Z,23.52
2019-05-19T17:07:18.315Z,21.65
2019-05-19T17:09:54.921Z,21.17
2019-05-19T17:12:40.295Z,21.73
2019-05-19T17:15:17.062Z,22.48
2019-05-19T17:17:53.723Z,22.58
2019-05-19T17:20:31.044Z,21.27
2019-05-19T17:23:07.842Z,21.80
2019-05-19T17:25:44.369Z,22.87
2019-05-19T17:28:20.805Z,23.15
2019-05-19T17:30:58.115Z,22.00
2019-05-19T17:33:34.400Z,22.10
2019-05-19T17:36:10.885Z,20.48
2019-05-19T17:38:47.502Z,21.20
2019-05-19T17:41:24.456Z,22.07
2019-05-19T17:44:01.229Z,20.02
2019-05-19T17:46:37.713Z,19.30
2019-05-19T17:49:14.348Z,19.30
2019-05-19T17:51:51.030Z,19.45
2019-05-19T17:54:27.938Z,18.82
2019-05-19T17:57:05.940Z,19.17
2019-05-19T17:59:44.638Z,18.20
2019-05-19T18:02:21.452Z,19.23
2019-05-19T18:04:59.127Z,18.57
2019-05-19T18:07:35.982Z,17.45
2019-05-19T18:10:12.766Z,17.50
2019-05-19T18:12:49.408Z,18.65
2019-05-19T18:15:26.104Z,16.97
2019-05-19T18:18:02.914Z,17.55
2019-05-19T18:20:39.447Z,18.12
2019-05-19T18:23:17.614Z,17.07
2019-05-19T18:25:54.240Z,17.07
2019-05-19T18:28:30.672Z,17.27
2019-05-19T18:31:07.417Z,17.02
2019-05-19T18:33:44.052Z,16.23
2019-05-19T18:36:20.962Z,17.30
2019-05-19T18:38:57.604Z,17.77
2019-05-19T18:41:34.224Z,17.00
2019-05-19T18:44:10.903Z,17.05
2019-05-19T18:46:47.383Z,16.42
2019-05-19T18:49:24.664Z,17.37
2019-05-19T18:52:01.371Z,17.73
2019-05-19T18:54:38.319Z,18.40
2019-05-19T18:57:15.211Z,17.62
2019-05-19T18:59:51.490Z,17.15
2019-05-19T19:02:28.078Z,17.80
2019-05-19T19:05:21.451Z,16.70
2019-05-19T19:07:58.380Z,17.57
2019-05-19T19:10:35.214Z,17.42
2019-05-19T19:13:11.619Z,17.35
2019-05-19T19:15:48.241Z,16.73
2019-05-19T19:18:25.293Z,16.97
2019-05-19T19:21:01.832Z,17.02
2019-05-19T19:23:38.790Z,17.30
2019-05-19T19:26:15.334Z,16.97
2019-05-19T19:28:52.371Z,18.00
2019-05-19T19:31:28.807Z,19.45
2019-05-19T19:34:05.790Z,17.02
2019-05-19T19:36:42.665Z,18.02
2019-05-19T19:39:19.731Z,17.40
2019-05-19T19:41:56.626Z,17.15
2019-05-19T19:44:33.115Z,16.67
2019-05-19T19:47:09.657Z,18.15
2019-05-19T19:49:46.633Z,17.07
2019-05-19T19:52:22.699Z,18.55
2019-05-19T19:54:59.539Z,17.50
2019-05-19T19:57:36.342Z,17.50
2019-05-19T20:00:18.224Z,18.80
2019-05-19T20:02:50.685Z,17.07
2019-05-19T20:05:27.004Z,17.82
2019-05-19T20:08:03.645Z,18.48
2019-05-19T20:10:40.327Z,17.67
2019-05-19T20:13:17.450Z,17.30
2019-05-19T20:15:53.977Z,16.30
2019-05-19T20:18:30.799Z,18.07
2019-05-19T20:21:08.207Z,19.07
2019-05-19T20:23:44.891Z,18.52
2019-05-19T20:26:21.750Z,16.87
2019-05-19T20:28:58.549Z,18.35
2019-05-19T20:31:35.136Z,18.70
2019-05-19T20:34:11.260Z,18.30
2019-05-19T20:36:47.786Z,18.50
2019-05-19T20:39:24.236Z,18.70
2019-05-19T20:42:00.855Z,19.40
2019-05-19T20:44:37.536Z,19.35
2019-05-19T20:47:14.416Z,18.52
2019-05-19T20:49:50.945Z,18.27
2019-05-19T20:52:27.569Z,19.23
2019-05-19T20:55:03.932Z,19.55
2019-05-19T20:57:40.939Z,20.20
2019-05-19T21:00:17.765Z,18.20
2019-05-19T21:02:54.445Z,20.02
2019-05-19T21:05:31.446Z,19.57
2019-05-19T21:08:09.427Z,19.82
2019-05-19T21:10:45.928Z,19.20
2019-05-19T21:13:22.580Z,19.45
2019-05-19T21:15:59.139Z,18.92
2019-05-19T21:18:35.874Z,19.17
2019-05-19T21:21:12.677Z,19.50
2019-05-19T21:23:49.077Z,19.55
2019-05-19T21:26:25.813Z,19.12
2019-05-19T21:29:02.454Z,19.85
2019-05-19T21:31:38.923Z,21.85
2019-05-19T21:34:16.067Z,19.90
2019-05-19T21:36:52.813Z,21.75
2019-05-19T21:39:29.282Z,21.95
2019-05-19T21:42:06.133Z,22.22
2019-05-19T21:44:43.459Z,21.95
2019-05-19T21:47:20.684Z,20.75
2019-05-19T21:49:57.382Z,20.85
2019-05-19T21:52:33.873Z,20.92
2019-05-19T21:55:10.507Z,21.02
2019-05-19T21:57:47.093Z,21.40
2019-05-19T22:00:26.529Z,21.62
2019-05-19T22:03:05.046Z,21.93
2019-05-19T22:05:52.884Z,22.30
2019-05-19T22:08:20.323Z,23.40
2019-05-19T22:10:56.938Z,28.32
2019-05-19T22:13:33.484Z,32.15
2019-05-19T22:16:13.280Z,28.42
2019-05-19T22:18:48.270Z,28.05
2019-05-19T22:21:25.859Z,29.98
2019-05-19T22:24:02.729Z,29.15
2019-05-19T22:26:39.583Z,27.27
2019-05-19T22:29:16.318Z,25.37
2019-05-19T22:31:52.844Z,26.10
2019-05-19T22:34:29.560Z,24.45
2019-05-19T22:37:06.129Z,26.33
2019-05-19T22:39:42.929Z,25.90
2019-05-19T22:42:19.582Z,24.85
2019-05-19T22:44:56.365Z,25.95
2019-05-19T22:47:33.379Z,24.98
2019-05-19T22:50:10.009Z,26.33
2019-05-19T22:52:46.833Z,26.15
2019-05-19T22:55:23.004Z,26.02
2019-05-19T22:57:59.803Z,25.20
2019-05-19T23:00:36.139Z,25.37
2019-05-19T23:03:14.397Z,25.25
2019-05-19T23:05:50.789Z,26.45
2019-05-19T23:08:27.482Z,27.27
2019-05-19T23:11:04.393Z,26.73
2019-05-19T23:13:41.003Z,27.98
2019-05-19T23:16:17.711Z,27.90
2019-05-19T23:18:54.058Z,28.12
2019-05-19T23:21:30.704Z,28.42
2019-05-19T23:24:07.204Z,28.55
2019-05-19T23:26:43.560Z,27.60
2019-05-19T23:29:20.051Z,27.05
2019-05-19T23:32:06.776Z,27.30
2019-05-19T23:34:34.924Z,28.23
2019-05-19T23:37:11.736Z,28.73
2019-05-19T23:39:48.619Z,28.98
2019-05-19T23:42:25.078Z,28.80
2019-05-19T23:45:02.162Z,29.00
2019-05-19T23:47:38.876Z,29.00
2019-05-19T23:50:15.789Z,26.48
2019-05-19T23:52:52.494Z,23.70
2019-05-19T23:55:29.064Z,22.22
2019-05-19T23:58:05.970Z,22.60
